LPB weather

El Alto International Airport
La Paz / El Alto, La Paz Department, Bolivia

Public forecast

Using degrees Celsius for public forecast. Weather courtesy of forecast.io.

Current aviation weather report (METAR) for El Alto International Airport

Retrieved 2019/11/20 10:00 UTC (45 minutes ago):

SLLP 201000Z 06007KT 9999 FEW005 SCT200 03/M03 Q1039

Aviation forecast (TAF) for El Alto International Airport

Retrieved 2019/11/20 06:25 UTC (4 hours ago):

TAF SLLP 200400Z 2006/2106 08006KT 4000E VCFG FEW003 SCT010 TX16/ 2020Z TN04/2010Z PROB30 TEMPO 2008/2010 0800 FG BECMG 2013/2015 14010KT 9999 NSW TEMPO 2018/2022 10015G25KT FEW023CB